EZY897 EGKK-EGHQ
Flight info
| Callsign | EZY897 |
|---|---|
| Flight time | 0h 42m |
| Altitude | 30000 |
| Route | IMVUR N63 SAM L620 GIBSO DCT DAWLY |
| Aircraft | A320/M-SDE3FGHIRWY/LB1 |
Departure
| Time | 2026-05-09 12:16 |
|---|---|
| Airport | London Gatwick Airport (EGKK) |
Arrival
| Time | 2026-05-09 12:58 |
|---|---|
| Airport | Cornwall Airport Newquay (EGHQ) |
| Time | Latitude | Longitude | Altitude | Speed | Heading |
|---|---|---|---|---|---|
| 2026-05-09 11:51 | 51.15441 | -0.18633 | 211 ft | 0 kts | 78° |
| 2026-05-09 12:06 | 51.15438 | -0.18656 | 213 ft | 4 kts | 79° |
| 2026-05-09 12:06 | 51.15433 | -0.18698 | 213 ft | 4 kts | 83° |
| 2026-05-09 12:06 | 51.15431 | -0.18740 | 213 ft | 4 kts | 94° |
| 2026-05-09 12:07 | 51.15437 | -0.18779 | 211 ft | 4 kts | 133° |
| 2026-05-09 12:07 | 51.15445 | -0.18790 | 210 ft | 0 kts | 167° |
| 2026-05-09 12:09 | 51.15438 | -0.18787 | 204 ft | 4 kts | 168° |
| 2026-05-09 12:09 | 51.15387 | -0.18770 | 210 ft | 9 kts | 168° |
| 2026-05-09 12:09 | 51.15326 | -0.18749 | 208 ft | 9 kts | 167° |
| 2026-05-09 12:10 | 51.15139 | -0.18720 | 211 ft | 12 kts | 221° |
| 2026-05-09 12:10 | 51.15114 | -0.18844 | 213 ft | 12 kts | 257° |
| 2026-05-09 12:10 | 51.15097 | -0.18969 | 211 ft | 11 kts | 258° |
| 2026-05-09 12:11 | 51.15082 | -0.19080 | 209 ft | 10 kts | 258° |
| 2026-05-09 12:11 | 51.15065 | -0.19209 | 206 ft | 13 kts | 256° |
| 2026-05-09 12:11 | 51.15044 | -0.19353 | 204 ft | 13 kts | 258° |
| 2026-05-09 12:11 | 51.15025 | -0.19493 | 213 ft | 13 kts | 258° |
| 2026-05-09 12:12 | 51.15003 | -0.19658 | 208 ft | 16 kts | 257° |
| 2026-05-09 12:12 | 51.14978 | -0.19825 | 207 ft | 15 kts | 257° |
| 2026-05-09 12:12 | 51.14956 | -0.19986 | 214 ft | 15 kts | 257° |
| 2026-05-09 12:12 | 51.14936 | -0.20145 | 206 ft | 14 kts | 259° |
| 2026-05-09 12:13 | 51.14914 | -0.20297 | 207 ft | 14 kts | 257° |
| 2026-05-09 12:13 | 51.14893 | -0.20444 | 206 ft | 13 kts | 257° |
| 2026-05-09 12:13 | 51.14874 | -0.20584 | 209 ft | 13 kts | 257° |
| 2026-05-09 12:13 | 51.14848 | -0.20776 | 204 ft | 20 kts | 257° |
| 2026-05-09 12:14 | 51.14819 | -0.20984 | 208 ft | 18 kts | 257° |
| 2026-05-09 12:14 | 51.14790 | -0.21166 | 210 ft | 15 kts | 249° |
| 2026-05-09 12:14 | 51.14764 | -0.21322 | 204 ft | 14 kts | 258° |
| 2026-05-09 12:14 | 51.14700 | -0.21397 | 204 ft | 12 kts | 171° |
| 2026-05-09 12:15 | 51.14625 | -0.21329 | 204 ft | 14 kts | 163° |
| 2026-05-09 12:15 | 51.14535 | -0.21259 | 202 ft | 16 kts | 130° |
| 2026-05-09 12:15 | 51.14525 | -0.21136 | 203 ft | 0 kts | 78° |
| 2026-05-09 12:15 | 51.14526 | -0.21129 | 211 ft | 5 kts | 77° |
| 2026-05-09 12:16 | 51.14582 | -0.20721 | 209 ft | 78 kts | 77° |
| 2026-05-09 12:16 | 51.14747 | -0.19514 | 212 ft | 142 kts | 78° |
| 2026-05-09 12:16 | 51.14974 | -0.17892 | 790 ft | 154 kts | 78° |
| 2026-05-09 12:16 | 51.15211 | -0.16167 | 1613 ft | 165 kts | 78° |
| 2026-05-09 12:17 | 51.15480 | -0.14255 | 2155 ft | 187 kts | 77° |
| 2026-05-09 12:17 | 51.15783 | -0.12102 | 2686 ft | 210 kts | 78° |
| 2026-05-09 12:17 | 51.16066 | -0.10020 | 2998 ft | 221 kts | 78° |
| 2026-05-09 12:17 | 51.16394 | -0.07629 | 3988 ft | 220 kts | 76° |
| 2026-05-09 12:18 | 51.17135 | -0.05504 | 5002 ft | 227 kts | 42° |
| 2026-05-09 12:18 | 51.18586 | -0.04554 | 5925 ft | 238 kts | 7° |
| 2026-05-09 12:18 | 51.20251 | -0.04779 | 6910 ft | 243 kts | 351° |
| 2026-05-09 12:18 | 51.21832 | -0.05795 | 7839 ft | 252 kts | 320° |
| 2026-05-09 12:19 | 51.22804 | -0.08116 | 8716 ft | 263 kts | 287° |
| 2026-05-09 12:19 | 51.22916 | -0.11132 | 9266 ft | 284 kts | 263° |
| 2026-05-09 12:19 | 51.22604 | -0.14289 | 10127 ft | 291 kts | 257° |
| 2026-05-09 12:19 | 51.22160 | -0.17455 | 11077 ft | 293 kts | 256° |
| 2026-05-09 12:20 | 51.21691 | -0.20629 | 12050 ft | 295 kts | 256° |
| 2026-05-09 12:20 | 51.21235 | -0.23843 | 13019 ft | 297 kts | 257° |
| 2026-05-09 12:20 | 51.20802 | -0.27081 | 13959 ft | 300 kts | 257° |
| 2026-05-09 12:20 | 51.20391 | -0.30348 | 14797 ft | 302 kts | 258° |
| 2026-05-09 12:21 | 51.19994 | -0.33657 | 15672 ft | 303 kts | 258° |
| 2026-05-09 12:21 | 51.19604 | -0.36928 | 16450 ft | 307 kts | 258° |
| 2026-05-09 12:21 | 51.19181 | -0.40285 | 17231 ft | 311 kts | 257° |
| 2026-05-09 12:21 | 51.18735 | -0.43683 | 18000 ft | 315 kts | 257° |
| 2026-05-09 12:22 | 51.18278 | -0.47122 | 18744 ft | 318 kts | 256° |
| 2026-05-09 12:22 | 51.17820 | -0.50591 | 19430 ft | 322 kts | 256° |
| 2026-05-09 12:22 | 51.17249 | -0.54057 | 20100 ft | 325 kts | 249° |
| 2026-05-09 12:22 | 51.16367 | -0.57510 | 20249 ft | 346 kts | 246° |
| 2026-05-09 12:23 | 51.15405 | -0.61115 | 20627 ft | 358 kts | 245° |
| 2026-05-09 12:23 | 51.14418 | -0.64781 | 21239 ft | 363 kts | 245° |
| 2026-05-09 12:23 | 51.13429 | -0.68444 | 21886 ft | 366 kts | 245° |
| 2026-05-09 12:23 | 51.12420 | -0.72193 | 22552 ft | 369 kts | 245° |
| 2026-05-09 12:24 | 51.11406 | -0.75973 | 23240 ft | 372 kts | 245° |
| 2026-05-09 12:24 | 51.10847 | -0.78052 | 23600 ft | 374 kts | 245° |
| 2026-05-09 12:24 | 51.09818 | -0.81873 | 24172 ft | 377 kts | 245° |
| 2026-05-09 12:24 | 51.08781 | -0.85729 | 24716 ft | 380 kts | 245° |
| 2026-05-09 12:25 | 51.07735 | -0.89616 | 25247 ft | 383 kts | 244° |
| 2026-05-09 12:25 | 51.06704 | -0.93441 | 25752 ft | 386 kts | 244° |
| 2026-05-09 12:25 | 51.05643 | -0.97378 | 26268 ft | 390 kts | 244° |
| 2026-05-09 12:25 | 51.04571 | -1.01350 | 26759 ft | 393 kts | 244° |
| 2026-05-09 12:26 | 51.03856 | -1.03995 | 27091 ft | 394 kts | 244° |
| 2026-05-09 12:26 | 51.02765 | -1.08020 | 27568 ft | 397 kts | 244° |
| 2026-05-09 12:26 | 51.01668 | -1.12058 | 28045 ft | 399 kts | 244° |
| 2026-05-09 12:26 | 51.00560 | -1.16113 | 28516 ft | 402 kts | 244° |
| 2026-05-09 12:27 | 50.99444 | -1.20197 | 28984 ft | 405 kts | 244° |
| 2026-05-09 12:27 | 50.98316 | -1.24312 | 29443 ft | 407 kts | 243° |
| 2026-05-09 12:27 | 50.97178 | -1.28446 | 29881 ft | 410 kts | 243° |
| 2026-05-09 12:27 | 50.96037 | -1.32591 | 30064 ft | 409 kts | 244° |
| 2026-05-09 12:28 | 50.95133 | -1.36781 | 30084 ft | 394 kts | 252° |
| 2026-05-09 12:28 | 50.94456 | -1.40914 | 30082 ft | 380 kts | 251° |
| 2026-05-09 12:28 | 50.93782 | -1.44932 | 30085 ft | 373 kts | 251° |
| 2026-05-09 12:29 | 50.92434 | -1.52781 | 30085 ft | 370 kts | 251° |
| 2026-05-09 12:29 | 50.91073 | -1.60639 | 30085 ft | 370 kts | 251° |
| 2026-05-09 12:30 | 50.89715 | -1.68494 | 30085 ft | 370 kts | 251° |
| 2026-05-09 12:30 | 50.87675 | -1.80270 | 30084 ft | 369 kts | 251° |
| 2026-05-09 12:31 | 50.85621 | -1.92028 | 30104 ft | 369 kts | 251° |
| 2026-05-09 12:32 | 50.84249 | -1.99853 | 30101 ft | 369 kts | 251° |
| 2026-05-09 12:32 | 50.82876 | -2.07669 | 30096 ft | 368 kts | 251° |
| 2026-05-09 12:33 | 50.81507 | -2.15426 | 30091 ft | 368 kts | 251° |
| 2026-05-09 12:33 | 50.80124 | -2.23215 | 30087 ft | 368 kts | 251° |
| 2026-05-09 12:34 | 50.78733 | -2.30998 | 30087 ft | 368 kts | 251° |
| 2026-05-09 12:34 | 50.77341 | -2.38795 | 30086 ft | 369 kts | 251° |
| 2026-05-09 12:35 | 50.75929 | -2.46598 | 30071 ft | 369 kts | 251° |
| 2026-05-09 12:35 | 50.74510 | -2.54398 | 30068 ft | 370 kts | 251° |
| 2026-05-09 12:36 | 50.73068 | -2.62326 | 30089 ft | 392 kts | 251° |
| 2026-05-09 12:36 | 50.72301 | -2.66529 | 30089 ft | 405 kts | 251° |
| 2026-05-09 12:36 | 50.71517 | -2.70835 | 30081 ft | 406 kts | 251° |
| 2026-05-09 12:36 | 50.70762 | -2.75014 | 29921 ft | 385 kts | 251° |
| 2026-05-09 12:37 | 50.70042 | -2.79001 | 29236 ft | 372 kts | 251° |
| 2026-05-09 12:37 | 50.69332 | -2.82884 | 28384 ft | 366 kts | 251° |
| 2026-05-09 12:37 | 50.68623 | -2.86728 | 27489 ft | 363 kts | 251° |
| 2026-05-09 12:37 | 50.67920 | -2.90524 | 26638 ft | 359 kts | 251° |
| 2026-05-09 12:38 | 50.67223 | -2.94280 | 25815 ft | 355 kts | 251° |
| 2026-05-09 12:38 | 50.66534 | -2.97992 | 25013 ft | 350 kts | 252° |
| 2026-05-09 12:38 | 50.65850 | -3.01665 | 24232 ft | 346 kts | 252° |
| 2026-05-09 12:38 | 50.65174 | -3.05286 | 23439 ft | 343 kts | 252° |
| 2026-05-09 12:39 | 50.64513 | -3.08825 | 22572 ft | 339 kts | 252° |
| 2026-05-09 12:39 | 50.63851 | -3.12363 | 21757 ft | 335 kts | 251° |
| 2026-05-09 12:39 | 50.63195 | -3.15865 | 20988 ft | 331 kts | 252° |
| 2026-05-09 12:39 | 50.62545 | -3.19329 | 20247 ft | 327 kts | 251° |
| 2026-05-09 12:40 | 50.61901 | -3.22750 | 19503 ft | 324 kts | 251° |
| 2026-05-09 12:40 | 50.61263 | -3.26130 | 18798 ft | 321 kts | 252° |
| 2026-05-09 12:40 | 50.60633 | -3.29479 | 18092 ft | 317 kts | 251° |
| 2026-05-09 12:40 | 50.60009 | -3.32794 | 17317 ft | 314 kts | 251° |
| 2026-05-09 12:41 | 50.59390 | -3.36081 | 16515 ft | 314 kts | 250° |
| 2026-05-09 12:41 | 50.58776 | -3.39325 | 15769 ft | 313 kts | 252° |
| 2026-05-09 12:41 | 50.58154 | -3.42606 | 15044 ft | 311 kts | 251° |
| 2026-05-09 12:41 | 50.57534 | -3.45857 | 14376 ft | 309 kts | 251° |
| 2026-05-09 12:42 | 50.56952 | -3.49108 | 13698 ft | 309 kts | 253° |
| 2026-05-09 12:42 | 50.56438 | -3.52381 | 13235 ft | 308 kts | 255° |
| 2026-05-09 12:42 | 50.55951 | -3.55674 | 12967 ft | 310 kts | 255° |
| 2026-05-09 12:42 | 50.55469 | -3.58977 | 12698 ft | 309 kts | 255° |
| 2026-05-09 12:43 | 50.54982 | -3.62272 | 12434 ft | 308 kts | 255° |
| 2026-05-09 12:43 | 50.54491 | -3.65541 | 12171 ft | 307 kts | 255° |
| 2026-05-09 12:43 | 50.53994 | -3.68803 | 11916 ft | 306 kts | 255° |
| 2026-05-09 12:43 | 50.53498 | -3.72033 | 11668 ft | 308 kts | 255° |
| 2026-05-09 12:44 | 50.52993 | -3.75298 | 11412 ft | 307 kts | 253° |
| 2026-05-09 12:44 | 50.52484 | -3.78567 | 11159 ft | 306 kts | 254° |
| 2026-05-09 12:44 | 50.51978 | -3.81809 | 10909 ft | 304 kts | 255° |
| 2026-05-09 12:44 | 50.51474 | -3.85047 | 10666 ft | 305 kts | 255° |
| 2026-05-09 12:45 | 50.50971 | -3.88285 | 10415 ft | 306 kts | 254° |
| 2026-05-09 12:45 | 50.50463 | -3.91531 | 10172 ft | 306 kts | 255° |
| 2026-05-09 12:45 | 50.49957 | -3.94760 | 9969 ft | 303 kts | 254° |
| 2026-05-09 12:45 | 50.49454 | -3.97964 | 9850 ft | 301 kts | 255° |
| 2026-05-09 12:46 | 50.49106 | -4.01200 | 9720 ft | 302 kts | 269° |
| 2026-05-09 12:46 | 50.49158 | -4.04525 | 9587 ft | 303 kts | 271° |
| 2026-05-09 12:46 | 50.49221 | -4.07835 | 9453 ft | 304 kts | 271° |
| 2026-05-09 12:46 | 50.49284 | -4.11115 | 9314 ft | 305 kts | 271° |
| 2026-05-09 12:47 | 50.49346 | -4.14443 | 9183 ft | 303 kts | 271° |
| 2026-05-09 12:47 | 50.49405 | -4.17722 | 9052 ft | 301 kts | 271° |
| 2026-05-09 12:47 | 50.49463 | -4.21024 | 8917 ft | 301 kts | 271° |
| 2026-05-09 12:47 | 50.49520 | -4.24283 | 8785 ft | 297 kts | 271° |
| 2026-05-09 12:48 | 50.49575 | -4.27521 | 8652 ft | 298 kts | 271° |
| 2026-05-09 12:48 | 50.49631 | -4.30793 | 8517 ft | 298 kts | 271° |
| 2026-05-09 12:48 | 50.49688 | -4.34029 | 8374 ft | 297 kts | 271° |
| 2026-05-09 12:48 | 50.49745 | -4.37255 | 8254 ft | 300 kts | 271° |
| 2026-05-09 12:49 | 50.49800 | -4.40514 | 8117 ft | 298 kts | 271° |
| 2026-05-09 12:49 | 50.49852 | -4.43751 | 7996 ft | 294 kts | 271° |
| 2026-05-09 12:49 | 50.49900 | -4.46980 | 7850 ft | 295 kts | 271° |
| 2026-05-09 12:49 | 50.49947 | -4.50191 | 7730 ft | 295 kts | 272° |
| 2026-05-09 12:50 | 50.49993 | -4.53399 | 7601 ft | 292 kts | 271° |
| 2026-05-09 12:50 | 50.50038 | -4.56603 | 7472 ft | 295 kts | 271° |
| 2026-05-09 12:50 | 50.50086 | -4.59816 | 7344 ft | 292 kts | 272° |
| 2026-05-09 12:50 | 50.50137 | -4.63009 | 7198 ft | 293 kts | 273° |
| 2026-05-09 12:51 | 50.50401 | -4.66154 | 6692 ft | 286 kts | 283° |
| 2026-05-09 12:51 | 50.50913 | -4.69119 | 6000 ft | 282 kts | 289° |
| 2026-05-09 12:51 | 50.51509 | -4.72042 | 5276 ft | 279 kts | 289° |
| 2026-05-09 12:51 | 50.52112 | -4.74937 | 4538 ft | 277 kts | 290° |
| 2026-05-09 12:52 | 50.52718 | -4.77806 | 3813 ft | 276 kts | 290° |
| 2026-05-09 12:52 | 50.53343 | -4.80648 | 3104 ft | 274 kts | 290° |
| 2026-05-09 12:52 | 50.53976 | -4.83469 | 2393 ft | 272 kts | 290° |
| 2026-05-09 12:52 | 50.54603 | -4.86249 | 2138 ft | 269 kts | 290° |
| 2026-05-09 12:53 | 50.55062 | -4.89128 | 2080 ft | 274 kts | 281° |
| 2026-05-09 12:53 | 50.55365 | -4.92048 | 2083 ft | 275 kts | 279° |
| 2026-05-09 12:53 | 50.55582 | -4.95037 | 2082 ft | 275 kts | 276° |
| 2026-05-09 12:53 | 50.55765 | -4.98032 | 2078 ft | 275 kts | 276° |
| 2026-05-09 12:54 | 50.55941 | -5.01017 | 2081 ft | 271 kts | 275° |
| 2026-05-09 12:54 | 50.55852 | -5.03873 | 2080 ft | 255 kts | 255° |
| 2026-05-09 12:54 | 50.55169 | -5.06316 | 2077 ft | 235 kts | 235° |
| 2026-05-09 12:54 | 50.54330 | -5.08431 | 2080 ft | 221 kts | 236° |
| 2026-05-09 12:55 | 50.53525 | -5.10457 | 2087 ft | 216 kts | 236° |
| 2026-05-09 12:55 | 50.52724 | -5.12394 | 2080 ft | 204 kts | 227° |
| 2026-05-09 12:55 | 50.51611 | -5.13613 | 2082 ft | 193 kts | 193° |
| 2026-05-09 12:55 | 50.50322 | -5.13741 | 2079 ft | 183 kts | 162° |
| 2026-05-09 12:56 | 50.49215 | -5.12881 | 1989 ft | 175 kts | 134° |
| 2026-05-09 12:56 | 50.48546 | -5.11459 | 1851 ft | 156 kts | 117° |
| 2026-05-09 12:56 | 50.48022 | -5.10059 | 1658 ft | 139 kts | 116° |
| 2026-05-09 12:56 | 50.47555 | -5.08814 | 1465 ft | 128 kts | 115° |
| 2026-05-09 12:57 | 50.47112 | -5.07627 | 1295 ft | 125 kts | 115° |
| 2026-05-09 12:57 | 50.46673 | -5.06454 | 1126 ft | 125 kts | 114° |
| 2026-05-09 12:57 | 50.46232 | -5.05272 | 978 ft | 126 kts | 115° |
| 2026-05-09 12:57 | 50.45791 | -5.04082 | 768 ft | 125 kts | 116° |
| 2026-05-09 12:58 | 50.45344 | -5.02909 | 640 ft | 126 kts | 116° |
| 2026-05-09 12:58 | 50.44899 | -5.01723 | 431 ft | 126 kts | 117° |
| 2026-05-09 12:58 | 50.44466 | -5.00551 | 330 ft | 113 kts | 118° |
| 2026-05-09 12:58 | 50.44206 | -4.99856 | 346 ft | 45 kts | 121° |
| 2026-05-09 12:59 | 50.44083 | -4.99517 | 351 ft | 11 kts | 93° |
| 2026-05-09 12:59 | 50.44147 | -4.99488 | 349 ft | 12 kts | 0° |
| 2026-05-09 12:59 | 50.44224 | -4.99485 | 359 ft | 9 kts | 4° |
| 2026-05-09 12:59 | 50.44275 | -4.99521 | 365 ft | 9 kts | 307° |
| 2026-05-09 13:00 | 50.44309 | -4.99609 | 358 ft | 11 kts | 300° |
| 2026-05-09 13:00 | 50.44366 | -4.99759 | 358 ft | 19 kts | 301° |
| 2026-05-09 13:00 | 50.44443 | -4.99962 | 344 ft | 23 kts | 301° |
| 2026-05-09 13:00 | 50.44529 | -5.00184 | 337 ft | 20 kts | 301° |
| 2026-05-09 13:01 | 50.44592 | -5.00367 | 334 ft | 18 kts | 299° |
| 2026-05-09 13:01 | 50.44643 | -5.00429 | 334 ft | 6 kts | 29° |
| 2026-05-09 13:01 | 50.44650 | -5.00408 | 335 ft | 0 kts | 68° |
| 2026-05-09 13:01 | 50.44653 | -5.00384 | 329 ft | 3 kts | 78° |
| 2026-05-09 13:02 | 50.44655 | -5.00374 | 327 ft | 0 kts | 78° |